sensor_id;sensor_type;location;lat;lon;timestamp;P1;durP1;ratioP1;P2;durP2;ratioP2
3779;SDS011;1905;52.482;9.802;2023-08-06T00:01:39;7.77;;;2.30;;
3779;SDS011;1905;52.482;9.802;2023-08-06T00:04:07;7.03;;;2.30;;
3779;SDS011;1905;52.482;9.802;2023-08-06T00:06:34;7.70;;;1.83;;
3779;SDS011;1905;52.482;9.802;2023-08-06T00:09:02;6.80;;;2.03;;
3779;SDS011;1905;52.482;9.802;2023-08-06T00:11:30;6.27;;;1.90;;
3779;SDS011;1905;52.482;9.802;2023-08-06T00:13:58;6.70;;;2.00;;
3779;SDS011;1905;52.482;9.802;2023-08-06T00:16:26;7.67;;;2.40;;
3779;SDS011;1905;52.482;9.802;2023-08-06T00:18:55;7.47;;;2.70;;
3779;SDS011;1905;52.482;9.802;2023-08-06T00:21:22;8.50;;;2.80;;
3779;SDS011;1905;52.482;9.802;2023-08-06T00:23:50;7.20;;;2.67;;
3779;SDS011;1905;52.482;9.802;2023-08-06T00:26:18;7.63;;;2.70;;
3779;SDS011;1905;52.482;9.802;2023-08-06T00:28:46;7.70;;;2.07;;
3779;SDS011;1905;52.482;9.802;2023-08-06T00:31:14;9.70;;;2.43;;
3779;SDS011;1905;52.482;9.802;2023-08-06T00:33:41;8.00;;;2.57;;
3779;SDS011;1905;52.482;9.802;2023-08-06T00:36:10;7.70;;;2.63;;
3779;SDS011;1905;52.482;9.802;2023-08-06T00:38:38;8.00;;;2.70;;
3779;SDS011;1905;52.482;9.802;2023-08-06T00:41:06;6.70;;;2.30;;
3779;SDS011;1905;52.482;9.802;2023-08-06T00:43:33;8.37;;;2.37;;
3779;SDS011;1905;52.482;9.802;2023-08-06T00:46:01;8.83;;;2.60;;
3779;SDS011;1905;52.482;9.802;2023-08-06T00:48:30;6.93;;;2.40;;
3779;SDS011;1905;52.482;9.802;2023-08-06T00:50:58;8.33;;;2.80;;
3779;SDS011;1905;52.482;9.802;2023-08-06T00:53:27;7.10;;;2.50;;
3779;SDS011;1905;52.482;9.802;2023-08-06T00:55:55;7.40;;;2.70;;
3779;SDS011;1905;52.482;9.802;2023-08-06T00:58:23;6.90;;;2.17;;
3779;SDS011;1905;52.482;9.802;2023-08-06T01:00:51;6.50;;;2.20;;
3779;SDS011;1905;52.482;9.802;2023-08-06T01:03:18;7.80;;;2.20;;
3779;SDS011;1905;52.482;9.802;2023-08-06T01:05:46;7.93;;;2.70;;
3779;SDS011;1905;52.482;9.802;2023-08-06T01:08:17;8.57;;;3.10;;
3779;SDS011;1905;52.482;9.802;2023-08-06T01:10:58;6.87;;;2.40;;
3779;SDS011;1905;52.482;9.802;2023-08-06T01:13:33;7.63;;;2.60;;
3779;SDS011;1905;52.482;9.802;2023-08-06T01:16:09;7.33;;;2.40;;
3779;SDS011;1905;52.482;9.802;2023-08-06T01:18:39;7.00;;;3.03;;
3779;SDS011;1905;52.482;9.802;2023-08-06T01:21:09;8.53;;;2.43;;
3779;SDS011;1905;52.482;9.802;2023-08-06T01:23:37;8.73;;;3.03;;
3779;SDS011;1905;52.482;9.802;2023-08-06T01:26:05;8.60;;;2.80;;
3779;SDS011;1905;52.482;9.802;2023-08-06T01:28:40;9.10;;;3.17;;
3779;SDS011;1905;52.482;9.802;2023-08-06T01:31:17;7.50;;;2.80;;
3779;SDS011;1905;52.482;9.802;2023-08-06T01:33:48;9.50;;;2.80;;
3779;SDS011;1905;52.482;9.802;2023-08-06T01:36:19;7.53;;;2.50;;
3779;SDS011;1905;52.482;9.802;2023-08-06T01:38:48;11.03;;;2.70;;
3779;SDS011;1905;52.482;9.802;2023-08-06T01:41:18;9.03;;;3.10;;
3779;SDS011;1905;52.482;9.802;2023-08-06T01:43:46;7.40;;;2.67;;
3779;SDS011;1905;52.482;9.802;2023-08-06T01:46:14;7.83;;;2.80;;
3779;SDS011;1905;52.482;9.802;2023-08-06T01:48:41;7.67;;;2.37;;
3779;SDS011;1905;52.482;9.802;2023-08-06T01:51:09;7.13;;;2.30;;
3779;SDS011;1905;52.482;9.802;2023-08-06T01:53:38;7.23;;;2.60;;
3779;SDS011;1905;52.482;9.802;2023-08-06T01:56:06;8.13;;;2.83;;
3779;SDS011;1905;52.482;9.802;2023-08-06T01:58:34;6.53;;;2.23;;
3779;SDS011;1905;52.482;9.802;2023-08-06T02:01:02;8.07;;;2.80;;
3779;SDS011;1905;52.482;9.802;2023-08-06T02:03:30;7.77;;;3.23;;
3779;SDS011;1905;52.482;9.802;2023-08-06T02:05:57;6.87;;;2.53;;
3779;SDS011;1905;52.482;9.802;2023-08-06T02:08:26;9.20;;;3.00;;
3779;SDS011;1905;52.482;9.802;2023-08-06T02:10:55;8.60;;;3.03;;
3779;SDS011;1905;52.482;9.802;2023-08-06T02:13:24;7.03;;;2.47;;
3779;SDS011;1905;52.482;9.802;2023-08-06T02:15:51;9.63;;;2.90;;
3779;SDS011;1905;52.482;9.802;2023-08-06T02:18:19;6.80;;;2.30;;
3779;SDS011;1905;52.482;9.802;2023-08-06T02:20:54;7.23;;;2.50;;
3779;SDS011;1905;52.482;9.802;2023-08-06T02:23:23;8.23;;;2.90;;
3779;SDS011;1905;52.482;9.802;2023-08-06T02:25:57;7.37;;;2.53;;
3779;SDS011;1905;52.482;9.802;2023-08-06T02:28:27;8.57;;;3.03;;
3779;SDS011;1905;52.482;9.802;2023-08-06T02:30:54;10.00;;;3.70;;
3779;SDS011;1905;52.482;9.802;2023-08-06T02:33:22;10.00;;;4.10;;
3779;SDS011;1905;52.482;9.802;2023-08-06T02:35:50;9.20;;;3.03;;
3779;SDS011;1905;52.482;9.802;2023-08-06T02:38:18;11.40;;;4.50;;
3779;SDS011;1905;52.482;9.802;2023-08-06T02:40:46;17.90;;;6.40;;
3779;SDS011;1905;52.482;9.802;2023-08-06T02:43:15;11.80;;;4.90;;
3779;SDS011;1905;52.482;9.802;2023-08-06T02:45:43;10.73;;;4.60;;
3779;SDS011;1905;52.482;9.802;2023-08-06T02:48:10;11.70;;;4.63;;
3779;SDS011;1905;52.482;9.802;2023-08-06T02:50:38;12.40;;;5.67;;
3779;SDS011;1905;52.482;9.802;2023-08-06T02:53:06;12.67;;;5.80;;
3779;SDS011;1905;52.482;9.802;2023-08-06T02:55:35;13.90;;;7.80;;
3779;SDS011;1905;52.482;9.802;2023-08-06T02:58:10;12.63;;;6.17;;
3779;SDS011;1905;52.482;9.802;2023-08-06T03:00:44;11.33;;;5.03;;
3779;SDS011;1905;52.482;9.802;2023-08-06T03:03:13;15.20;;;6.73;;
3779;SDS011;1905;52.482;9.802;2023-08-06T03:05:51;13.40;;;6.20;;
3779;SDS011;1905;52.482;9.802;2023-08-06T03:08:29;16.07;;;6.63;;
3779;SDS011;1905;52.482;9.802;2023-08-06T03:10:57;18.13;;;6.30;;
3779;SDS011;1905;52.482;9.802;2023-08-06T03:13:25;14.53;;;6.30;;
3779;SDS011;1905;52.482;9.802;2023-08-06T03:15:56;18.03;;;8.13;;
3779;SDS011;1905;52.482;9.802;2023-08-06T03:18:25;14.93;;;6.33;;
3779;SDS011;1905;52.482;9.802;2023-08-06T03:20:56;20.73;;;9.17;;
3779;SDS011;1905;52.482;9.802;2023-08-06T03:23:27;21.40;;;8.80;;
3779;SDS011;1905;52.482;9.802;2023-08-06T03:25:56;16.93;;;8.10;;
3779;SDS011;1905;52.482;9.802;2023-08-06T03:28:29;15.87;;;7.27;;
3779;SDS011;1905;52.482;9.802;2023-08-06T03:31:00;16.03;;;6.77;;
3779;SDS011;1905;52.482;9.802;2023-08-06T03:33:35;17.57;;;7.77;;
3779;SDS011;1905;52.482;9.802;2023-08-06T03:36:07;16.07;;;6.27;;
3779;SDS011;1905;52.482;9.802;2023-08-06T03:38:35;17.90;;;7.90;;
3779;SDS011;1905;52.482;9.802;2023-08-06T03:41:06;21.07;;;8.13;;
3779;SDS011;1905;52.482;9.802;2023-08-06T03:43:33;18.47;;;7.70;;
3779;SDS011;1905;52.482;9.802;2023-08-06T03:46:06;18.27;;;7.40;;
3779;SDS011;1905;52.482;9.802;2023-08-06T03:48:33;18.00;;;7.70;;
3779;SDS011;1905;52.482;9.802;2023-08-06T03:51:01;16.13;;;7.13;;
3779;SDS011;1905;52.482;9.802;2023-08-06T03:53:29;13.90;;;5.93;;
3779;SDS011;1905;52.482;9.802;2023-08-06T03:55:58;18.63;;;7.10;;
3779;SDS011;1905;52.482;9.802;2023-08-06T03:58:28;16.40;;;7.10;;
3779;SDS011;1905;52.482;9.802;2023-08-06T04:00:59;16.20;;;6.87;;
3779;SDS011;1905;52.482;9.802;2023-08-06T04:03:33;13.80;;;6.53;;
3779;SDS011;1905;52.482;9.802;2023-08-06T04:06:02;14.57;;;6.90;;
3779;SDS011;1905;52.482;9.802;2023-08-06T04:08:30;17.57;;;7.57;;
3779;SDS011;1905;52.482;9.802;2023-08-06T04:10:58;16.37;;;7.57;;
3779;SDS011;1905;52.482;9.802;2023-08-06T04:13:26;17.40;;;8.00;;
3779;SDS011;1905;52.482;9.802;2023-08-06T04:15:53;18.70;;;7.93;;
3779;SDS011;1905;52.482;9.802;2023-08-06T04:18:23;14.37;;;6.57;;
3779;SDS011;1905;52.482;9.802;2023-08-06T04:20:53;23.20;;;6.90;;
3779;SDS011;1905;52.482;9.802;2023-08-06T04:23:21;18.27;;;6.37;;
3779;SDS011;1905;52.482;9.802;2023-08-06T04:25:50;10.77;;;5.33;;
3779;SDS011;1905;52.482;9.802;2023-08-06T04:28:19;18.33;;;5.80;;
3779;SDS011;1905;52.482;9.802;2023-08-06T04:30:46;20.30;;;6.40;;
3779;SDS011;1905;52.482;9.802;2023-08-06T04:33:14;16.07;;;6.27;;
3779;SDS011;1905;52.482;9.802;2023-08-06T04:35:43;28.33;;;7.27;;
3779;SDS011;1905;52.482;9.802;2023-08-06T04:38:12;18.43;;;5.83;;
3779;SDS011;1905;52.482;9.802;2023-08-06T04:40:40;15.83;;;6.90;;
3779;SDS011;1905;52.482;9.802;2023-08-06T04:43:08;13.87;;;5.60;;
3779;SDS011;1905;52.482;9.802;2023-08-06T04:45:36;13.50;;;5.70;;
3779;SDS011;1905;52.482;9.802;2023-08-06T04:48:03;16.60;;;6.80;;
3779;SDS011;1905;52.482;9.802;2023-08-06T04:50:31;14.10;;;6.60;;
3779;SDS011;1905;52.482;9.802;2023-08-06T04:52:59;15.33;;;5.60;;
3779;SDS011;1905;52.482;9.802;2023-08-06T04:55:28;13.80;;;6.40;;
3779;SDS011;1905;52.482;9.802;2023-08-06T04:57:56;13.83;;;5.23;;
3779;SDS011;1905;52.482;9.802;2023-08-06T05:00:23;14.00;;;5.83;;
3779;SDS011;1905;52.482;9.802;2023-08-06T05:02:51;11.73;;;5.00;;
3779;SDS011;1905;52.482;9.802;2023-08-06T05:05:19;11.47;;;4.80;;
3779;SDS011;1905;52.482;9.802;2023-08-06T05:07:47;13.17;;;5.90;;
3779;SDS011;1905;52.482;9.802;2023-08-06T05:10:16;12.87;;;5.33;;
3779;SDS011;1905;52.482;9.802;2023-08-06T05:12:45;14.77;;;5.97;;
3779;SDS011;1905;52.482;9.802;2023-08-06T05:15:13;13.80;;;5.70;;
3779;SDS011;1905;52.482;9.802;2023-08-06T05:17:41;11.97;;;4.63;;
3779;SDS011;1905;52.482;9.802;2023-08-06T05:20:09;10.97;;;4.90;;
3779;SDS011;1905;52.482;9.802;2023-08-06T05:22:38;10.90;;;4.17;;
3779;SDS011;1905;52.482;9.802;2023-08-06T05:25:06;11.67;;;4.43;;
3779;SDS011;1905;52.482;9.802;2023-08-06T05:27:34;13.93;;;5.47;;
3779;SDS011;1905;52.482;9.802;2023-08-06T05:30:03;12.83;;;4.93;;
3779;SDS011;1905;52.482;9.802;2023-08-06T05:32:32;11.47;;;4.50;;
3779;SDS011;1905;52.482;9.802;2023-08-06T05:35:00;12.23;;;4.37;;
3779;SDS011;1905;52.482;9.802;2023-08-06T05:37:28;12.37;;;4.47;;
3779;SDS011;1905;52.482;9.802;2023-08-06T05:39:56;11.90;;;5.37;;
3779;SDS011;1905;52.482;9.802;2023-08-06T05:42:23;11.50;;;4.63;;
3779;SDS011;1905;52.482;9.802;2023-08-06T05:44:51;14.77;;;5.90;;
3779;SDS011;1905;52.482;9.802;2023-08-06T05:47:20;15.30;;;5.43;;
3779;SDS011;1905;52.482;9.802;2023-08-06T05:49:51;15.93;;;5.33;;
3779;SDS011;1905;52.482;9.802;2023-08-06T05:52:19;13.27;;;5.50;;
3779;SDS011;1905;52.482;9.802;2023-08-06T05:54:47;14.27;;;5.67;;
3779;SDS011;1905;52.482;9.802;2023-08-06T05:57:14;14.50;;;5.83;;
3779;SDS011;1905;52.482;9.802;2023-08-06T05:59:42;13.37;;;5.23;;
3779;SDS011;1905;52.482;9.802;2023-08-06T06:02:10;14.90;;;6.17;;
3779;SDS011;1905;52.482;9.802;2023-08-06T06:04:40;13.60;;;5.20;;
3779;SDS011;1905;52.482;9.802;2023-08-06T06:07:08;14.50;;;6.10;;
3779;SDS011;1905;52.482;9.802;2023-08-06T06:09:35;15.10;;;6.67;;
3779;SDS011;1905;52.482;9.802;2023-08-06T06:12:03;15.37;;;6.77;;
3779;SDS011;1905;52.482;9.802;2023-08-06T06:14:32;10.77;;;5.20;;
3779;SDS011;1905;52.482;9.802;2023-08-06T06:17:00;11.70;;;5.10;;
3779;SDS011;1905;52.482;9.802;2023-08-06T06:19:27;12.50;;;5.40;;
3779;SDS011;1905;52.482;9.802;2023-08-06T06:21:56;16.77;;;7.00;;
3779;SDS011;1905;52.482;9.802;2023-08-06T06:24:24;11.97;;;6.03;;
3779;SDS011;1905;52.482;9.802;2023-08-06T06:26:52;11.57;;;5.60;;
3779;SDS011;1905;52.482;9.802;2023-08-06T06:29:20;14.40;;;7.20;;
3779;SDS011;1905;52.482;9.802;2023-08-06T06:31:47;13.47;;;5.90;;
3779;SDS011;1905;52.482;9.802;2023-08-06T06:34:15;10.53;;;4.90;;
3779;SDS011;1905;52.482;9.802;2023-08-06T06:36:43;16.07;;;6.80;;
3779;SDS011;1905;52.482;9.802;2023-08-06T06:39:12;14.03;;;6.40;;
3779;SDS011;1905;52.482;9.802;2023-08-06T06:41:39;13.13;;;6.23;;
3779;SDS011;1905;52.482;9.802;2023-08-06T06:44:17;15.60;;;7.30;;
3779;SDS011;1905;52.482;9.802;2023-08-06T06:46:46;16.50;;;7.50;;
3779;SDS011;1905;52.482;9.802;2023-08-06T06:49:14;13.93;;;5.47;;
3779;SDS011;1905;52.482;9.802;2023-08-06T06:51:41;13.03;;;5.97;;
3779;SDS011;1905;52.482;9.802;2023-08-06T06:54:09;16.73;;;6.93;;
3779;SDS011;1905;52.482;9.802;2023-08-06T06:56:39;13.90;;;6.47;;
3779;SDS011;1905;52.482;9.802;2023-08-06T06:59:06;17.73;;;6.23;;
3779;SDS011;1905;52.482;9.802;2023-08-06T07:01:34;14.10;;;7.40;;
3779;SDS011;1905;52.482;9.802;2023-08-06T07:04:02;13.63;;;5.77;;
3779;SDS011;1905;52.482;9.802;2023-08-06T07:06:31;11.70;;;5.57;;
3779;SDS011;1905;52.482;9.802;2023-08-06T07:08:58;15.67;;;6.77;;
3779;SDS011;1905;52.482;9.802;2023-08-06T07:11:26;11.20;;;5.83;;
3779;SDS011;1905;52.482;9.802;2023-08-06T07:13:57;16.50;;;6.43;;
3779;SDS011;1905;52.482;9.802;2023-08-06T07:16:26;15.00;;;6.10;;
3779;SDS011;1905;52.482;9.802;2023-08-06T07:18:54;10.37;;;5.17;;
3779;SDS011;1905;52.482;9.802;2023-08-06T07:21:22;14.70;;;6.40;;
3779;SDS011;1905;52.482;9.802;2023-08-06T07:23:50;14.80;;;6.70;;
3779;SDS011;1905;52.482;9.802;2023-08-06T07:26:18;13.10;;;6.10;;
3779;SDS011;1905;52.482;9.802;2023-08-06T07:28:45;13.57;;;6.50;;
3779;SDS011;1905;52.482;9.802;2023-08-06T07:31:14;13.80;;;5.90;;
3779;SDS011;1905;52.482;9.802;2023-08-06T07:33:42;13.70;;;6.70;;
3779;SDS011;1905;52.482;9.802;2023-08-06T07:36:10;13.40;;;6.53;;
3779;SDS011;1905;52.482;9.802;2023-08-06T07:38:39;12.27;;;6.33;;
3779;SDS011;1905;52.482;9.802;2023-08-06T07:41:08;15.43;;;6.57;;
3779;SDS011;1905;52.482;9.802;2023-08-06T07:43:36;13.27;;;4.70;;
3779;SDS011;1905;52.482;9.802;2023-08-06T07:46:03;12.63;;;5.70;;
3779;SDS011;1905;52.482;9.802;2023-08-06T07:48:33;12.17;;;5.10;;
3779;SDS011;1905;52.482;9.802;2023-08-06T07:51:00;11.40;;;5.60;;
3779;SDS011;1905;52.482;9.802;2023-08-06T07:53:29;10.17;;;5.20;;
3779;SDS011;1905;52.482;9.802;2023-08-06T07:55:57;10.43;;;5.10;;
3779;SDS011;1905;52.482;9.802;2023-08-06T07:58:25;14.90;;;5.50;;
3779;SDS011;1905;52.482;9.802;2023-08-06T08:00:52;10.20;;;4.87;;
3779;SDS011;1905;52.482;9.802;2023-08-06T08:03:20;10.50;;;5.27;;
3779;SDS011;1905;52.482;9.802;2023-08-06T08:05:49;11.20;;;4.67;;
3779;SDS011;1905;52.482;9.802;2023-08-06T08:08:18;10.97;;;4.77;;
3779;SDS011;1905;52.482;9.802;2023-08-06T08:10:46;11.20;;;4.47;;
3779;SDS011;1905;52.482;9.802;2023-08-06T08:13:13;11.97;;;4.80;;
3779;SDS011;1905;52.482;9.802;2023-08-06T08:15:41;10.83;;;4.60;;
3779;SDS011;1905;52.482;9.802;2023-08-06T08:18:09;9.30;;;3.50;;
3779;SDS011;1905;52.482;9.802;2023-08-06T08:20:36;10.67;;;4.20;;
3779;SDS011;1905;52.482;9.802;2023-08-06T08:23:05;8.87;;;3.67;;
3779;SDS011;1905;52.482;9.802;2023-08-06T08:25:33;12.53;;;4.50;;
3779;SDS011;1905;52.482;9.802;2023-08-06T08:28:01;9.03;;;3.30;;
3779;SDS011;1905;52.482;9.802;2023-08-06T08:30:29;9.00;;;3.50;;
3779;SDS011;1905;52.482;9.802;2023-08-06T08:32:57;8.40;;;3.30;;
3779;SDS011;1905;52.482;9.802;2023-08-06T08:35:25;7.97;;;3.33;;
3779;SDS011;1905;52.482;9.802;2023-08-06T08:37:53;9.70;;;3.30;;
3779;SDS011;1905;52.482;9.802;2023-08-06T08:40:22;7.37;;;2.97;;
3779;SDS011;1905;52.482;9.802;2023-08-06T08:42:57;7.83;;;2.97;;
3779;SDS011;1905;52.482;9.802;2023-08-06T08:45:26;7.97;;;2.77;;
3779;SDS011;1905;52.482;9.802;2023-08-06T08:47:56;9.83;;;3.00;;
3779;SDS011;1905;52.482;9.802;2023-08-06T08:50:24;9.40;;;2.80;;
3779;SDS011;1905;52.482;9.802;2023-08-06T08:52:52;7.97;;;3.20;;
3779;SDS011;1905;52.482;9.802;2023-08-06T08:55:21;8.43;;;3.20;;
3779;SDS011;1905;52.482;9.802;2023-08-06T08:57:50;8.93;;;3.50;;
3779;SDS011;1905;52.482;9.802;2023-08-06T09:00:18;8.27;;;2.90;;
3779;SDS011;1905;52.482;9.802;2023-08-06T09:02:46;7.73;;;3.20;;
3779;SDS011;1905;52.482;9.802;2023-08-06T09:05:14;7.77;;;3.27;;
3779;SDS011;1905;52.482;9.802;2023-08-06T09:07:42;7.60;;;3.13;;
3779;SDS011;1905;52.482;9.802;2023-08-06T09:10:14;8.80;;;2.83;;
3779;SDS011;1905;52.482;9.802;2023-08-06T09:12:46;7.00;;;2.23;;
3779;SDS011;1905;52.482;9.802;2023-08-06T09:15:15;8.60;;;2.93;;
3779;SDS011;1905;52.482;9.802;2023-08-06T09:17:43;9.60;;;2.93;;
3779;SDS011;1905;52.482;9.802;2023-08-06T09:20:11;9.10;;;3.30;;
3779;SDS011;1905;52.482;9.802;2023-08-06T09:22:40;7.20;;;2.60;;
3779;SDS011;1905;52.482;9.802;2023-08-06T09:25:09;7.20;;;2.83;;
3779;SDS011;1905;52.482;9.802;2023-08-06T09:27:38;7.10;;;2.80;;
3779;SDS011;1905;52.482;9.802;2023-08-06T09:30:07;9.83;;;3.43;;
3779;SDS011;1905;52.482;9.802;2023-08-06T09:32:45;11.53;;;3.27;;
3779;SDS011;1905;52.482;9.802;2023-08-06T09:35:17;6.97;;;2.63;;
3779;SDS011;1905;52.482;9.802;2023-08-06T09:37:45;8.30;;;2.97;;
3779;SDS011;1905;52.482;9.802;2023-08-06T09:40:24;10.00;;;3.73;;
3779;SDS011;1905;52.482;9.802;2023-08-06T09:42:54;7.73;;;2.93;;
3779;SDS011;1905;52.482;9.802;2023-08-06T09:45:23;14.00;;;6.60;;
3779;SDS011;1905;52.482;9.802;2023-08-06T09:47:57;10.53;;;4.30;;
3779;SDS011;1905;52.482;9.802;2023-08-06T09:50:28;7.80;;;2.60;;
3779;SDS011;1905;52.482;9.802;2023-08-06T09:52:56;8.30;;;2.47;;
3779;SDS011;1905;52.482;9.802;2023-08-06T09:55:25;8.50;;;3.03;;
3779;SDS011;1905;52.482;9.802;2023-08-06T09:57:53;8.97;;;3.47;;
3779;SDS011;1905;52.482;9.802;2023-08-06T10:00:23;9.93;;;3.10;;
3779;SDS011;1905;52.482;9.802;2023-08-06T10:02:51;8.13;;;2.60;;
3779;SDS011;1905;52.482;9.802;2023-08-06T10:05:22;9.63;;;2.50;;
3779;SDS011;1905;52.482;9.802;2023-08-06T10:07:51;8.73;;;3.10;;
3779;SDS011;1905;52.482;9.802;2023-08-06T10:10:20;7.90;;;2.60;;
3779;SDS011;1905;52.482;9.802;2023-08-06T10:12:48;7.23;;;2.77;;
3779;SDS011;1905;52.482;9.802;2023-08-06T10:15:20;9.90;;;2.87;;
3779;SDS011;1905;52.482;9.802;2023-08-06T10:17:52;8.23;;;2.97;;
3779;SDS011;1905;52.482;9.802;2023-08-06T10:20:24;8.80;;;3.50;;
3779;SDS011;1905;52.482;9.802;2023-08-06T10:22:59;8.37;;;3.27;;
3779;SDS011;1905;52.482;9.802;2023-08-06T10:25:31;8.43;;;3.07;;
3779;SDS011;1905;52.482;9.802;2023-08-06T10:28:01;7.33;;;2.90;;
3779;SDS011;1905;52.482;9.802;2023-08-06T10:30:42;7.97;;;2.93;;
3779;SDS011;1905;52.482;9.802;2023-08-06T10:33:11;9.50;;;3.20;;
3779;SDS011;1905;52.482;9.802;2023-08-06T10:35:41;6.97;;;2.80;;
3779;SDS011;1905;52.482;9.802;2023-08-06T10:38:11;8.93;;;3.30;;
3779;SDS011;1905;52.482;9.802;2023-08-06T10:40:43;7.93;;;3.00;;
3779;SDS011;1905;52.482;9.802;2023-08-06T10:43:24;7.80;;;3.10;;
3779;SDS011;1905;52.482;9.802;2023-08-06T10:45:55;7.37;;;2.73;;
3779;SDS011;1905;52.482;9.802;2023-08-06T10:48:30;7.70;;;2.73;;
3779;SDS011;1905;52.482;9.802;2023-08-06T10:51:00;9.77;;;3.27;;
3779;SDS011;1905;52.482;9.802;2023-08-06T10:53:29;7.83;;;3.10;;
3779;SDS011;1905;52.482;9.802;2023-08-06T10:55:59;11.97;;;3.30;;
3779;SDS011;1905;52.482;9.802;2023-08-06T10:58:31;7.63;;;3.10;;
3779;SDS011;1905;52.482;9.802;2023-08-06T11:01:00;7.20;;;2.60;;
3779;SDS011;1905;52.482;9.802;2023-08-06T11:03:28;9.20;;;3.03;;
3779;SDS011;1905;52.482;9.802;2023-08-06T11:05:56;9.87;;;2.97;;
3779;SDS011;1905;52.482;9.802;2023-08-06T11:08:24;7.83;;;2.77;;
3779;SDS011;1905;52.482;9.802;2023-08-06T11:10:52;6.50;;;2.60;;
3779;SDS011;1905;52.482;9.802;2023-08-06T11:13:29;9.37;;;3.03;;
3779;SDS011;1905;52.482;9.802;2023-08-06T11:15:58;7.70;;;2.87;;
3779;SDS011;1905;52.482;9.802;2023-08-06T11:18:27;7.13;;;2.10;;
3779;SDS011;1905;52.482;9.802;2023-08-06T11:20:55;11.47;;;3.03;;
3779;SDS011;1905;52.482;9.802;2023-08-06T11:23:26;8.20;;;2.80;;
3779;SDS011;1905;52.482;9.802;2023-08-06T11:25:54;7.40;;;2.60;;
3779;SDS011;1905;52.482;9.802;2023-08-06T11:28:22;8.20;;;2.93;;
3779;SDS011;1905;52.482;9.802;2023-08-06T11:30:51;8.17;;;2.87;;
3779;SDS011;1905;52.482;9.802;2023-08-06T11:33:22;8.63;;;2.43;;
3779;SDS011;1905;52.482;9.802;2023-08-06T11:35:53;7.13;;;2.67;;
3779;SDS011;1905;52.482;9.802;2023-08-06T11:38:24;7.20;;;2.43;;
3779;SDS011;1905;52.482;9.802;2023-08-06T11:40:52;7.00;;;2.40;;
3779;SDS011;1905;52.482;9.802;2023-08-06T11:43:20;9.80;;;2.47;;
3779;SDS011;1905;52.482;9.802;2023-08-06T11:45:49;7.70;;;2.83;;
3779;SDS011;1905;52.482;9.802;2023-08-06T11:48:18;7.43;;;2.63;;
3779;SDS011;1905;52.482;9.802;2023-08-06T11:50:46;10.07;;;2.43;;
3779;SDS011;1905;52.482;9.802;2023-08-06T11:53:15;7.13;;;2.43;;
3779;SDS011;1905;52.482;9.802;2023-08-06T11:55:43;7.20;;;2.50;;
3779;SDS011;1905;52.482;9.802;2023-08-06T11:58:11;7.07;;;2.77;;
3779;SDS011;1905;52.482;9.802;2023-08-06T12:00:39;7.23;;;2.83;;
3779;SDS011;1905;52.482;9.802;2023-08-06T12:03:07;8.73;;;3.07;;
3779;SDS011;1905;52.482;9.802;2023-08-06T12:05:35;8.90;;;2.57;;
3779;SDS011;1905;52.482;9.802;2023-08-06T12:08:04;8.10;;;3.13;;
3779;SDS011;1905;52.482;9.802;2023-08-06T12:10:33;8.57;;;2.63;;
3779;SDS011;1905;52.482;9.802;2023-08-06T12:13:01;8.30;;;2.70;;
3779;SDS011;1905;52.482;9.802;2023-08-06T12:15:29;8.00;;;3.00;;
3779;SDS011;1905;52.482;9.802;2023-08-06T12:17:59;6.80;;;2.47;;
3779;SDS011;1905;52.482;9.802;2023-08-06T12:20:26;10.00;;;2.67;;
3779;SDS011;1905;52.482;9.802;2023-08-06T12:22:55;6.37;;;2.30;;
3779;SDS011;1905;52.482;9.802;2023-08-06T12:25:22;7.80;;;3.23;;
3779;SDS011;1905;52.482;9.802;2023-08-06T12:27:51;7.37;;;2.40;;
3779;SDS011;1905;52.482;9.802;2023-08-06T12:30:19;8.00;;;2.87;;
3779;SDS011;1905;52.482;9.802;2023-08-06T12:32:47;6.53;;;2.50;;
3779;SDS011;1905;52.482;9.802;2023-08-06T12:35:15;7.10;;;2.50;;
3779;SDS011;1905;52.482;9.802;2023-08-06T12:37:43;7.50;;;2.63;;
3779;SDS011;1905;52.482;9.802;2023-08-06T12:40:11;6.40;;;2.40;;
3779;SDS011;1905;52.482;9.802;2023-08-06T12:42:42;8.20;;;2.73;;
3779;SDS011;1905;52.482;9.802;2023-08-06T12:45:11;7.27;;;2.27;;
3779;SDS011;1905;52.482;9.802;2023-08-06T12:47:40;6.97;;;2.50;;
3779;SDS011;1905;52.482;9.802;2023-08-06T12:50:08;9.23;;;2.60;;
3779;SDS011;1905;52.482;9.802;2023-08-06T12:52:37;9.53;;;2.70;;
3779;SDS011;1905;52.482;9.802;2023-08-06T12:55:10;6.80;;;2.30;;
3779;SDS011;1905;52.482;9.802;2023-08-06T12:57:37;6.70;;;2.40;;
3779;SDS011;1905;52.482;9.802;2023-08-06T13:00:24;8.07;;;2.67;;
3779;SDS011;1905;52.482;9.802;2023-08-06T13:02:52;6.80;;;2.53;;
3779;SDS011;1905;52.482;9.802;2023-08-06T13:05:20;7.00;;;2.63;;
3779;SDS011;1905;52.482;9.802;2023-08-06T13:07:48;8.30;;;3.00;;
3779;SDS011;1905;52.482;9.802;2023-08-06T13:10:16;7.60;;;3.03;;
3779;SDS011;1905;52.482;9.802;2023-08-06T13:12:43;7.40;;;2.50;;
3779;SDS011;1905;52.482;9.802;2023-08-06T13:15:11;7.37;;;2.43;;
3779;SDS011;1905;52.482;9.802;2023-08-06T13:17:42;6.33;;;2.23;;
3779;SDS011;1905;52.482;9.802;2023-08-06T13:20:09;8.07;;;2.80;;
3779;SDS011;1905;52.482;9.802;2023-08-06T13:22:37;7.27;;;2.10;;
3779;SDS011;1905;52.482;9.802;2023-08-06T13:25:05;7.30;;;2.33;;
3779;SDS011;1905;52.482;9.802;2023-08-06T13:27:33;6.70;;;2.23;;
3779;SDS011;1905;52.482;9.802;2023-08-06T13:30:01;8.53;;;2.57;;
3779;SDS011;1905;52.482;9.802;2023-08-06T13:32:29;6.83;;;2.27;;
3779;SDS011;1905;52.482;9.802;2023-08-06T13:35:00;6.47;;;2.10;;
3779;SDS011;1905;52.482;9.802;2023-08-06T13:37:27;6.63;;;2.37;;
3779;SDS011;1905;52.482;9.802;2023-08-06T13:39:55;9.63;;;2.40;;
3779;SDS011;1905;52.482;9.802;2023-08-06T13:42:23;8.87;;;2.37;;
3779;SDS011;1905;52.482;9.802;2023-08-06T13:44:51;6.80;;;2.20;;
3779;SDS011;1905;52.482;9.802;2023-08-06T13:47:19;7.00;;;2.00;;
3779;SDS011;1905;52.482;9.802;2023-08-06T13:49:46;6.13;;;1.93;;
3779;SDS011;1905;52.482;9.802;2023-08-06T13:52:16;6.70;;;2.30;;
3779;SDS011;1905;52.482;9.802;2023-08-06T13:54:48;7.50;;;2.30;;
3779;SDS011;1905;52.482;9.802;2023-08-06T13:57:16;6.60;;;1.73;;
3779;SDS011;1905;52.482;9.802;2023-08-06T13:59:44;8.57;;;2.33;;
3779;SDS011;1905;52.482;9.802;2023-08-06T14:02:12;6.93;;;2.10;;
3779;SDS011;1905;52.482;9.802;2023-08-06T14:04:40;5.90;;;1.63;;
3779;SDS011;1905;52.482;9.802;2023-08-06T14:07:07;6.67;;;2.10;;
3779;SDS011;1905;52.482;9.802;2023-08-06T14:09:37;6.67;;;2.13;;
3779;SDS011;1905;52.482;9.802;2023-08-06T14:12:06;6.40;;;2.20;;
3779;SDS011;1905;52.482;9.802;2023-08-06T14:14:34;6.77;;;1.90;;
3779;SDS011;1905;52.482;9.802;2023-08-06T14:17:04;6.47;;;2.20;;
3779;SDS011;1905;52.482;9.802;2023-08-06T14:19:32;7.00;;;1.97;;
3779;SDS011;1905;52.482;9.802;2023-08-06T14:22:00;5.80;;;1.70;;
3779;SDS011;1905;52.482;9.802;2023-08-06T14:24:28;7.37;;;1.67;;
3779;SDS011;1905;52.482;9.802;2023-08-06T14:26:57;5.87;;;1.60;;
3779;SDS011;1905;52.482;9.802;2023-08-06T14:29:25;6.13;;;1.60;;
3779;SDS011;1905;52.482;9.802;2023-08-06T14:31:55;6.77;;;1.97;;
3779;SDS011;1905;52.482;9.802;2023-08-06T14:34:22;10.53;;;1.97;;
3779;SDS011;1905;52.482;9.802;2023-08-06T14:36:50;6.00;;;1.73;;
3779;SDS011;1905;52.482;9.802;2023-08-06T14:39:19;8.23;;;1.70;;
3779;SDS011;1905;52.482;9.802;2023-08-06T14:41:46;6.17;;;1.60;;
3779;SDS011;1905;52.482;9.802;2023-08-06T14:44:15;5.60;;;1.43;;
3779;SDS011;1905;52.482;9.802;2023-08-06T14:46:43;6.00;;;1.60;;
3779;SDS011;1905;52.482;9.802;2023-08-06T14:49:12;7.60;;;2.10;;
3779;SDS011;1905;52.482;9.802;2023-08-06T14:51:39;6.60;;;1.53;;
3779;SDS011;1905;52.482;9.802;2023-08-06T14:54:07;6.30;;;1.63;;
3779;SDS011;1905;52.482;9.802;2023-08-06T14:56:35;6.50;;;1.90;;
3779;SDS011;1905;52.482;9.802;2023-08-06T14:59:03;5.90;;;1.70;;
3779;SDS011;1905;52.482;9.802;2023-08-06T15:01:32;6.73;;;1.97;;
3779;SDS011;1905;52.482;9.802;2023-08-06T15:04:00;6.47;;;1.73;;
3779;SDS011;1905;52.482;9.802;2023-08-06T15:06:28;6.50;;;2.30;;
3779;SDS011;1905;52.482;9.802;2023-08-06T15:08:56;6.00;;;2.00;;
3779;SDS011;1905;52.482;9.802;2023-08-06T15:11:27;6.13;;;1.90;;
3779;SDS011;1905;52.482;9.802;2023-08-06T15:13:55;7.30;;;1.90;;
3779;SDS011;1905;52.482;9.802;2023-08-06T15:16:23;7.13;;;2.33;;
3779;SDS011;1905;52.482;9.802;2023-08-06T15:18:52;10.40;;;2.53;;
3779;SDS011;1905;52.482;9.802;2023-08-06T15:21:21;5.90;;;2.00;;